Flight Track Log - Related Links

Times and Time Zones

All times are in EDT time to prevent confusion due to time zone crossing. See the DAL1041 flight status page for this flight to view local times or setup timezone preferences in your user account.

Time Position Orientation Groundspeed Altitude Reporting Facility
EDT Latitude Longitude Course Direction KTS MPH feet Rate Location/Type
Sat 12:36:36 PM 37.4667 -77.3333 253° West 185 213 2,100  Level Potomac TRACON
Sat 12:37:34 PM 37.4214 -77.3858 223° Southwest 250 288 4,200 2,824 Climbing Washington Center
Sat 12:38:35 PM 37.4161 -77.4719 266° West 250 288 7,700 2,380 Climbing Washington Center
Sat 12:39:35 PM 37.4061 -77.5658 262° West 263 303 9,000 1,475 Climbing Washington Center
Sat 12:40:33 PM 37.3942 -77.6594 261° West 268 308 10,600 1,475 Climbing Washington Center
Sat 12:41:33 PM 37.3839 -77.7664 263° West 309 356 11,900 1,835 Climbing Washington Center
Sat 12:42:00 PM 37.3230 -78.1083 253° West  Level FlightAware Approximate
Sat 12:42:34 PM 37.3711 -77.8942 263° West 347 399 14,300  Level Washington Center
Sat 12:43:33 PM 37.3497 -78.0242 258° West 368 423 16,800 2,450 Climbing Washington Center
Sat 12:44:34 PM 37.3197 -78.1669 255° West 389 448 19,200 1,587 Climbing Washington Center
Sat 12:45:34 PM 37.2894 -78.3094 255° West 401 461 20,000 496 Climbing Washington Center
Sat 12:46:35 PM 37.2803 -78.4344 265° West 411 473 20,200 1,160 Climbing Washington Center
Sat 12:47:33 PM 37.2767 -78.5831 268° West 416 479 22,300 1,966 Climbing Washington Center
Sat 12:48:34 PM 37.2708 -78.7289 267° West 421 484 24,100 1,350 Climbing Washington Center
Sat 12:49:33 PM 37.2667 -78.8828 268° West 431 496 25,000 500 Climbing Washington Center
Sat 12:50:34 PM 37.2619 -79.0522 268° West 441 507 25,100 1,100 Climbing Washington Center
Sat 12:52:33 PM 37.2253 -79.3661 262° West 446 513 28,300 1,609 Climbing Washington Center
Sat 12:53:33 PM 37.1911 -79.5183 254° West 452 520 29,900 1,537 Climbing Washington Center
Sat 12:54:34 PM 37.1589 -79.6703 255° West 458 527 31,400 1,438 Climbing Washington Center
Sat 12:55:34 PM 37.1269 -79.8147 255° West 463 533 32,800 793 Climbing Washington Center
Sat 12:56:35 PM 37.0758 -79.9550 245° Southwest 463 533 33,000 101 Climbing Washington Center
Sat 12:57:33 PM 36.9942 -80.0778 230° Southwest 454 522 33,000 877 Level Washington Center
Sat 12:58:45 PM 36.8956 -80.2233 230° Southwest 460 529 34,900 1,364 Climbing Atlanta Center
Sat 12:59:45 PM 36.8100 -80.3572 231° Southwest 460 529 36,000 550 Climbing Atlanta Center
Sat 01:00:45 PM 36.7344 -80.4772 232° Southwest 455 524 36,000  Level Atlanta Center
Sat 01:01:45 PM 36.6586 -80.5969 232° Southwest 450 518 36,000 500 Level Atlanta Center
Sat 01:02:45 PM 36.5828 -80.7192 232° Southwest 455 524 37,000 1,000 Climbing Atlanta Center
Sat 01:03:45 PM 36.5025 -80.8439 231° Southwest 460 529 38,000 1,050 Climbing Atlanta Center
Sat 01:04:45 PM 36.4244 -80.9631 231° Southwest 452 520 39,100 900 Climbing Atlanta Center
Sat 01:05:45 PM 36.3353 -81.0775 226° Southwest 452 520 39,800 450 Climbing Atlanta Center
Sat 01:06:45 PM 36.2519 -81.1656 220° Southwest 445 512 40,000 100 Climbing Atlanta Center
Sat 01:07:45 PM 36.1606 -81.2689 222° Southwest 450 518 40,000  Level Atlanta Center
Sat 01:08:45 PM 36.0711 -81.3722 223° Southwest 450 518 40,000  Level Atlanta Center
Sat 01:09:45 PM 35.9817 -81.4803 224° Southwest 450 518 40,000  Level Atlanta Center
Sat 01:10:45 PM 35.8961 -81.5933 227° Southwest 450 518 40,000  Level Atlanta Center
Sat 01:11:45 PM 35.8108 -81.7058 227° Southwest 450 518 40,000 -100 Level Atlanta Center
Sat 01:12:45 PM 35.7253 -81.8183 227° Southwest 455 524 39,800 -900 Descending Atlanta Center
Sat 01:13:45 PM 35.6439 -81.9331 229° Southwest 445 512 38,200 -1,450 Descending Atlanta Center
Sat 01:14:45 PM 35.5625 -82.0550 231° Southwest 458 527 36,900 -1,150 Descending Atlanta Center
Sat 01:15:45 PM 35.4831 -82.1744 231° Southwest 463 533 35,900 -950 Descending Atlanta Center
Sat 01:16:45 PM 35.4119 -82.3086 237° Southwest 469 540 35,000 -550 Descending Atlanta Center
Sat 01:17:45 PM 35.3514 -82.4625 244° Southwest 463 533 34,800 -600 Descending Atlanta Center
Sat 01:18:45 PM 35.2989 -82.5958 244° Southwest 456 525 33,800 -1,900 Descending Atlanta Center
Sat 01:19:45 PM 35.2519 -82.7008 241° Southwest 418 481 31,000 -3,000 Descending Atlanta Center
Sat 01:20:45 PM 35.2031 -82.8211 244° Southwest 403 464 27,800 -3,000 Descending Atlanta Center
Sat 01:21:45 PM 35.1542 -82.9364 243° Southwest 390 449 25,000 -1,900 Descending Atlanta Center
Sat 01:22:45 PM 35.0819 -83.0286 226° Southwest 390 449 24,000 -500 Descending Atlanta Center
Sat 01:23:45 PM 34.9867 -83.1161 217° Southwest 399 459 24,000  Level Atlanta Center
Sat 01:24:45 PM 34.8869 -83.1956 213° Southwest 433 498 24,000 -300 Level Atlanta Center
Sat 01:25:45 PM 34.7894 -83.2800 215° Southwest 439 505 23,400 -950 Descending Atlanta Center
Sat 01:26:45 PM 34.6939 -83.3567 213° Southwest 433 498 22,100 -700 Descending Atlanta Center
Sat 01:27:45 PM 34.5900 -83.4383 213° Southwest 421 484 22,000 -1,250 Descending Atlanta Center
Sat 01:28:45 PM 34.4944 -83.5197 215° Southwest 421 484 19,600 -2,150 Descending Atlanta Center
Sat 01:29:45 PM 34.3925 -83.5958 212° Southwest 426 490 17,700 -1,900 Descending Atlanta Center
Sat 01:30:45 PM 34.3050 -83.6717 216° Southwest 413 475 15,800 -1,950 Descending Atlanta Center
Sat 01:31:45 PM 34.2197 -83.7397 213° Southwest 388 447 13,800 -1,850 Descending Atlanta Center
Sat 01:32:45 PM 34.1342 -83.8078 213° Southwest 374 430 12,100 -900 Descending Atlanta Center
Sat 01:33:45 PM 34.0550 -83.8808 217° Southwest 374 430 12,000 -200 Descending Atlanta Center
Sat 01:34:45 PM 33.9944 -83.9436 221° Southwest 343 395 11,700 -900 Descending Atlanta Center
Sat 01:35:45 PM 33.9153 -83.9661 193° South 285 328 10,200 -1,350 Descending Atlanta Center
Sat 01:36:45 PM 33.8317 -83.9639 179° South 296 341 9,000 -850 Descending Atlanta Center
Sat 01:37:45 PM 33.7503 -83.9639 180° South 296 341 8,500 -700 Descending Atlanta Center
Sat 01:38:45 PM 33.6669 -83.9889 194° South 291 335 7,600 -1,000 Descending Atlanta Center
Sat 01:39:45 PM 33.6272 -84.0414 228° Southwest 240 276 6,500 -1,022 Descending Atlanta Center
Sat 01:41:47 PM 33.6333 -84.1833 273° West 207 238 4,500 -957 Descending Atlanta TRACON
Sat 01:42:53 PM 33.6333 -84.2667 270° West 206 237 3,500 -905 Descending Atlanta TRACON
Sat 01:43:53 PM 33.6333 -84.3333 270° West 178 205 2,600 -947 Descending Atlanta TRACON
Sat 01:44:47 PM 33.6333 -84.3667 270° West 145 167 1,700 -1,000 Descending Atlanta TRACON

Login

Don't have an account? Register now (free) for customized features, flight alerts, and more!